Time;durP1;ratioP1;P1;durP2;ratioP2;P2;SDS_P1;SDS_P2;PMS_P1;PMS_P2;Temp;Humidity;BMP_temperature;BMP_pressure;BME280_temperature;BME280_humidity;BME280_pressure;Samples;Min_cycle;Max_cycle;Signal;HPM_P1;HPM_P2
2022/07/22 00:04:53;;;;;;;13.45;2.80;;;;;;;17.10;100.00;102243.09;10420652;28;20057;-73
2022/07/22 00:09:54;;;;;;;24.08;3.63;;;;;;;17.12;100.00;102239.13;10418239;28;20107;-74
2022/07/22 00:14:54;;;;;;;2.15;1.95;;;;;;;17.13;100.00;102229.88;10416870;28;20036;-73
2022/07/22 00:19:55;;;;;;;4.60;2.35;;;;;;;17.14;100.00;102227.97;10400136;28;20452;-73
2022/07/22 00:24:55;;;;;;;4.65;2.60;;;;;;;17.10;100.00;102230.28;10418393;28;20282;-74
2022/07/22 00:29:55;;;;;;;7.07;2.55;;;;;;;17.05;100.00;102218.28;10419763;28;20064;-73
2022/07/22 00:34:56;;;;;;;12.82;3.10;;;;;;;17.06;100.00;102220.78;10420354;28;20042;-75
2022/07/22 00:39:56;;;;;;;7.35;1.65;;;;;;;17.07;100.00;102213.41;10417209;28;20042;-73
2022/07/22 00:44:57;;;;;;;2.00;1.70;;;;;;;17.07;100.00;102207.94;10415168;28;20032;-73
2022/07/22 00:49:57;;;;;;;4.13;2.63;;;;;;;17.10;100.00;102207.53;10417813;28;20116;-74
2022/07/22 00:54:58;;;;;;;2.80;1.55;;;;;;;17.06;100.00;102198.91;10416161;28;20504;-73
2022/07/22 00:59:59;;;;;;;1.13;1.13;;;;;;;17.06;100.00;102201.63;10416309;28;20037;-74
2022/07/22 01:04:59;;;;;;;6.25;2.55;;;;;;;17.03;100.00;102207.53;10426012;28;20049;-74
2022/07/22 01:10:00;;;;;;;9.00;2.65;;;;;;;17.00;100.00;102201.63;10415423;28;20029;-73
2022/07/22 01:15:00;;;;;;;4.93;2.08;;;;;;;16.92;100.00;102206.25;10416101;28;20052;-73
2022/07/22 01:20:05;;;;;;;3.17;2.05;;;;;;;16.93;100.00;102196.97;10432695;28;20051;-73
2022/07/22 01:25:06;;;;;;;4.32;1.45;;;;;;;16.89;100.00;102193.00;10415371;28;20038;-73
2022/07/22 01:30:07;;;;;;;2.90;1.88;;;;;;;16.89;100.00;102194.88;10415639;28;20044;-74
2022/07/22 01:35:08;;;;;;;6.88;2.40;;;;;;;16.88;100.00;102196.78;10413903;28;20045;-72
2022/07/22 01:40:09;;;;;;;3.90;2.55;;;;;;;16.92;100.00;102206.25;10413905;28;20056;-73
2022/07/22 01:45:10;;;;;;;7.07;1.88;;;;;;;16.94;100.00;102195.97;10416357;28;20116;-73
2022/07/22 01:50:11;;;;;;;9.73;2.38;;;;;;;16.96;100.00;102195.72;10413397;28;20037;-73
2022/07/22 01:55:13;;;;;;;6.57;1.65;;;;;;;16.94;100.00;102185.00;10433303;28;20466;-74
2022/07/22 02:00:14;;;;;;;5.05;2.75;;;;;;;16.98;100.00;102193.63;10422210;28;20444;-74
2022/07/22 02:05:15;;;;;;;2.65;1.92;;;;;;;16.96;100.00;102190.25;10423346;28;20107;-73
2022/07/22 02:10:15;;;;;;;6.05;2.38;;;;;;;16.91;100.00;102177.22;10404476;28;20041;-73
2022/07/22 02:15:15;;;;;;;4.03;1.70;;;;;;;16.88;100.00;102183.09;10404569;28;20033;-73
2022/07/22 02:20:16;;;;;;;2.15;1.60;;;;;;;16.83;100.00;102182.03;10421943;28;20045;-74
2022/07/22 02:25:16;;;;;;;13.93;2.28;;;;;;;16.79;100.00;102187.09;10404103;28;20164;-73
2022/07/22 02:30:17;;;;;;;4.35;1.67;;;;;;;16.77;100.00;102180.97;10404695;28;20037;-74
2022/07/22 02:35:17;;;;;;;2.92;1.58;;;;;;;16.73;100.00;102176.94;10422119;28;20033;-73
2022/07/22 02:45:28;;;;;;;8.82;1.88;;;;;;;16.79;100.00;102172.56;10589683;23;20086;-74
2022/07/22 02:50:28;;;;;;;3.72;2.28;;;;;;;16.83;100.00;102160.16;10298866;28;20517;-74
2022/07/22 02:55:28;;;;;;;6.05;2.03;;;;;;;16.87;100.00;102158.66;10299957;28;20030;-73
2022/07/22 03:00:29;;;;;;;3.78;2.22;;;;;;;16.86;100.00;102157.84;10299559;28;20050;-72
2022/07/22 03:05:29;;;;;;;1.35;1.02;;;;;;;16.80;100.00;102150.47;10299709;28;20436;-74
2022/07/22 03:10:30;;;;;;;2.03;1.75;;;;;;;16.74;100.00;102160.31;10298025;28;20053;-73
2022/07/22 03:15:30;;;;;;;1.35;1.25;;;;;;;16.63;100.00;102163.66;10298457;28;20039;-72
2022/07/22 03:20:31;;;;;;;3.33;1.75;;;;;;;16.47;100.00;102158.56;10298786;28;20046;-73
2022/07/22 03:25:32;;;;;;;5.95;1.50;;;;;;;16.36;100.00;102162.72;10280653;28;20043;-73
2022/07/22 03:30:32;;;;;;;7.03;1.75;;;;;;;16.33;100.00;102168.59;10298943;28;20045;-73
2022/07/22 03:35:33;;;;;;;1.52;1.30;;;;;;;16.32;100.00;102172.41;10297666;28;20497;-74
2022/07/22 03:40:33;;;;;;;10.65;2.15;;;;;;;16.19;100.00;102164.16;10280610;28;20039;-74
2022/07/22 03:45:33;;;;;;;1.63;1.52;;;;;;;16.02;100.00;102166.41;10299086;28;20050;-73
2022/07/22 03:50:34;;;;;;;5.20;1.73;;;;;;;16.00;100.00;102168.47;10297567;28;20122;-72
2022/07/22 03:55:34;;;;;;;4.63;2.55;;;;;;;16.09;100.00;102169.16;10296924;28;20039;-73
2022/07/22 04:00:35;;;;;;;6.65;2.13;;;;;;;16.21;100.00;102181.19;10296260;28;20039;-73
2022/07/22 04:05:35;;;;;;;3.13;1.40;;;;;;;16.37;100.00;102179.97;10297975;28;20031;-74
2022/07/22 04:10:35;;;;;;;6.05;2.08;;;;;;;16.51;100.00;102176.25;10295223;28;20137;-74
2022/07/22 04:15:36;;;;;;;4.45;1.48;;;;;;;16.62;100.00;102166.59;10295688;28;20039;-74
2022/07/22 04:20:36;;;;;;;5.80;2.42;;;;;;;16.69;100.00;102165.56;10295908;28;20210;-73
2022/07/22 04:25:36;;;;;;;6.57;1.67;;;;;;;16.76;100.00;102162.88;10262665;28;20035;-73
2022/07/22 04:30:37;;;;;;;4.68;1.48;;;;;;;16.80;100.00;102163.31;10296015;28;20496;-72
2022/07/22 04:35:37;;;;;;;1.48;1.38;;;;;;;16.88;100.00;102166.69;10279709;28;20035;-70
2022/07/22 04:40:38;;;;;;;7.78;1.73;;;;;;;16.96;100.00;102161.00;10277621;28;20116;-68
2022/07/22 04:45:38;;;;;;;3.80;2.85;;;;;;;17.06;100.00;102163.31;10295270;28;20097;-68
2022/07/22 04:50:38;;;;;;;7.68;2.58;;;;;;;17.14;100.00;102160.38;10295043;28;20054;-67
2022/07/22 04:55:39;;;;;;;4.90;2.45;;;;;;;17.28;100.00;102172.16;10294974;28;20472;-66
2022/07/22 05:00:39;;;;;;;1.73;1.13;;;;;;;17.38;100.00;102166.25;10278015;28;20110;-70
2022/07/22 05:05:40;;;;;;;1.40;1.30;;;;;;;17.52;100.00;102162.47;10294071;28;20058;-68
2022/07/22 05:10:40;;;;;;;5.70;2.30;;;;;;;17.66;100.00;102161.38;10295095;28;20377;-68
2022/07/22 05:15:41;;;;;;;2.40;1.38;;;;;;;17.87;100.00;102156.75;10293215;28;20041;-68
2022/07/22 05:20:41;;;;;;;5.75;2.13;;;;;;;18.13;100.00;102159.38;10294332;28;20078;-71
2022/07/22 05:25:41;;;;;;;1.83;1.25;;;;;;;18.26;100.00;102157.63;10293663;28;20433;-72
2022/07/22 05:30:42;;;;;;;5.43;2.58;;;;;;;18.51;100.00;102161.31;10301368;28;20034;-72
2022/07/22 05:35:42;;;;;;;1.90;1.80;;;;;;;18.57;100.00;102163.16;10289577;28;20434;-72
2022/07/22 05:40:43;;;;;;;0.93;0.93;;;;;;;18.45;100.00;102166.84;10307192;28;20105;-72
2022/07/22 05:45:43;;;;;;;1.48;1.25;;;;;;;18.19;100.00;102156.81;10309039;28;20051;-72
2022/07/22 05:50:43;;;;;;;8.00;2.42;;;;;;;18.32;100.00;102162.25;10306417;28;20038;-72
2022/07/22 05:55:44;;;;;;;3.38;1.48;;;;;;;18.55;100.00;102162.53;10289573;28;20062;-71
2022/07/22 06:00:44;;;;;;;4.40;2.00;;;;;;;18.76;100.00;102166.03;10305679;28;20137;-72
2022/07/22 06:05:45;;;;;;;3.05;0.77;;;;;;;18.76;100.00;102158.66;10305879;28;20181;-71
2022/07/22 06:10:45;;;;;;;6.20;1.85;;;;;;;18.88;100.00;102161.50;10306875;28;20431;-72
2022/07/22 06:15:46;;;;;;;2.60;2.17;;;;;;;19.12;100.00;102157.13;10306394;28;20398;-71
2022/07/22 06:20:46;;;;;;;6.97;2.05;;;;;;;19.88;100.00;102150.47;10306400;28;20101;-72
2022/07/22 06:25:46;;;;;;;2.13;1.85;;;;;;;19.97;100.00;102148.25;10307151;28;20031;-72
2022/07/22 06:30:47;;;;;;;5.15;1.40;;;;;;;19.90;100.00;102150.22;10290034;28;20039;-72
2022/07/22 06:35:47;;;;;;;4.45;1.83;;;;;;;19.79;100.00;102157.34;10305100;28;20031;-71
2022/07/22 06:40:48;;;;;;;1.23;1.10;;;;;;;19.65;100.00;102156.63;10303634;28;20481;-71
2022/07/22 06:45:48;;;;;;;1.65;1.55;;;;;;;19.67;100.00;102154.50;10299868;28;20121;-72
2022/07/22 06:50:48;;;;;;;1.75;1.65;;;;;;;19.82;100.00;102164.31;10297521;28;20038;-72
2022/07/22 06:55:49;;;;;;;5.32;1.92;;;;;;;19.82;100.00;102161.56;10298503;28;20038;-73
2022/07/22 07:00:49;;;;;;;1.45;1.33;;;;;;;19.91;100.00;102162.91;10283305;28;20410;-71
2022/07/22 07:05:49;;;;;;;0.55;0.55;;;;;;;19.94;100.00;102160.56;10281369;28;20038;-71
2022/07/22 07:10:50;;;;;;;6.15;2.00;;;;;;;19.90;100.00;102169.47;10298405;28;20510;-72
2022/07/22 07:15:50;;;;;;;1.33;1.23;;;;;;;20.07;100.00;102158.69;10298900;28;20039;-71
2022/07/22 07:20:51;;;;;;;4.13;1.33;;;;;;;20.22;100.00;102153.66;10297404;28;20390;-72
2022/07/22 07:25:51;;;;;;;3.38;0.93;;;;;;;20.73;100.00;102157.00;10297304;28;20059;-73
2022/07/22 07:30:51;;;;;;;2.50;1.02;;;;;;;20.62;100.00;102155.91;10280497;28;20135;-71
2022/07/22 07:35:52;;;;;;;1.55;1.45;;;;;;;20.75;100.00;102154.84;10280564;28;20035;-72
2022/07/22 07:40:52;;;;;;;1.42;1.33;;;;;;;20.88;100.00;102161.00;10297563;28;20493;-72
2022/07/22 07:45:53;;;;;;;1.13;1.02;;;;;;;20.99;100.00;102152.97;10279483;28;20086;-72
2022/07/22 07:50:53;;;;;;;5.13;1.83;;;;;;;21.02;100.00;102152.50;10296368;28;20042;-72
2022/07/22 07:55:54;;;;;;;3.40;1.35;;;;;;;21.68;100.00;102140.34;10296529;28;20130;-71
2022/07/22 08:00:54;;;;;;;5.82;1.33;;;;;;;21.81;100.00;102142.84;10263841;28;20430;-72
2022/07/22 08:05:54;;;;;;;8.20;1.25;;;;;;;22.01;100.00;102147.94;10296470;28;20493;-72
2022/07/22 08:10:55;;;;;;;4.00;2.53;;;;;;;21.80;100.00;102146.69;10297164;28;20038;-72
2022/07/22 08:15:55;;;;;;;4.63;2.60;;;;;;;21.35;100.00;102138.22;10297381;28;20082;-73
2022/07/22 08:20:56;;;;;;;5.95;2.17;;;;;;;21.27;100.00;102124.75;10280634;28;20070;-72
2022/07/22 08:25:56;;;;;;;10.45;2.45;;;;;;;21.18;100.00;102128.94;10280190;28;20031;-71
2022/07/22 08:30:56;;;;;;;1.50;1.08;;;;;;;20.59;100.00;102121.41;10296168;28;20527;-72
2022/07/22 08:35:57;;;;;;;1.35;1.35;;;;;;;20.84;100.00;102131.41;10296145;28;20039;-71
2022/07/22 08:40:57;;;;;;;1.88;1.73;;;;;;;21.34;100.00;102130.97;10295194;28;20070;-72
2022/07/22 08:45:58;;;;;;;9.30;1.98;;;;;;;21.43;100.00;102121.31;10261452;28;20095;-71
2022/07/22 08:50:58;;;;;;;5.55;1.90;;;;;;;21.47;100.00;102129.94;10278148;28;20034;-71
2022/07/22 08:55:58;;;;;;;4.70;1.50;;;;;;;22.86;100.00;102115.91;10295763;28;20038;-73
2022/07/22 09:01:06;;;;;;;2.58;1.67;;;;;;;23.12;100.00;102119.94;10294836;28;20034;-72
2022/07/22 09:06:06;;;;;;;3.70;1.95;;;;;;;23.90;100.00;102115.31;10292793;28;20037;-71
2022/07/22 09:11:20;;;;;;;2.13;1.63;;;;;;;23.12;100.00;102113.59;10277869;28;20034;-72
2022/07/22 09:16:46;;;;;;;3.15;1.20;;;;;;;22.64;100.00;102102.00;10293343;28;20382;-72
2022/07/22 09:21:49;;;;;;;1.80;1.70;;;;;;;24.14;100.00;102109.47;10276321;28;20475;-71
2022/07/22 09:26:49;;;;;;;2.85;1.73;;;;;;;25.06;100.00;102107.63;10294379;28;20031;-71
2022/07/22 09:31:51;;;;;;;3.47;2.38;;;;;;;24.24;100.00;102112.34;10276159;28;20153;-72
2022/07/22 09:36:58;;;;;;;4.03;1.98;;;;;;;23.36;100.00;102117.84;10292851;28;20046;-72
2022/07/22 09:42:00;;;;;;;3.03;1.73;;;;;;;23.26;100.00;102120.47;10276312;28;20050;-71
2022/07/22 09:47:01;;;;;;;1.55;1.45;;;;;;;23.31;100.00;102131.59;10277009;28;20383;-72
2022/07/22 09:52:01;;;;;;;3.08;1.70;;;;;;;23.20;100.00;102127.84;10276125;28;20038;-72
2022/07/22 09:57:02;;;;;;;5.68;1.92;;;;;;;23.25;100.00;102135.34;10292728;28;20035;-71
2022/07/22 10:02:03;;;;;;;1.00;1.00;;;;;;;23.24;100.00;102133.69;10292722;28;20042;-72
2022/07/22 10:07:03;;;;;;;1.80;1.70;;;;;;;23.84;100.00;102121.03;10276481;28;20030;-72
2022/07/22 10:12:04;;;;;;;2.33;1.63;;;;;;;24.05;100.00;102117.41;10292433;28;20034;-72
2022/07/22 10:17:05;;;;;;;7.65;2.17;;;;;;;23.71;100.00;102119.47;10280872;28;20038;-72
2022/07/22 10:22:25;;;;;;;6.43;1.48;;;;;;;23.53;98.50;102134.41;10299665;28;20114;-72
2022/07/22 10:27:59;;;;;;;2.47;2.03;;;;;;;23.28;100.00;102128.50;10299021;28;20442;-73
2022/07/22 10:33:19;;;;;;;2.05;1.67;;;;;;;24.38;95.63;102137.72;10287790;28;20568;-71
2022/07/22 10:38:21;;;;;;;1.80;1.70;;;;;;;25.31;94.45;102140.28;10282879;28;20059;-72
2022/07/22 10:43:26;;;;;;;1.25;1.15;;;;;;;25.69;99.36;102125.25;10282709;28;20047;-71
2022/07/22 10:48:29;;;;;;;3.05;1.73;;;;;;;26.10;99.69;102111.59;10298613;28;20375;-72
2022/07/22 10:53:41;;;;;;;2.58;1.67;;;;;;;26.66;79.09;102085.88;10298563;28;20069;-72
2022/07/22 10:58:44;;;;;;;2.15;1.98;;;;;;;27.97;72.95;102074.75;10300212;28;20034;-72
2022/07/22 11:03:45;;;;;;;1.73;1.63;;;;;;;26.60;83.45;102089.75;10299970;28;20041;-73
2022/07/22 11:08:51;;;;;;;3.35;1.65;;;;;;;25.28;82.78;102080.63;10301378;28;20031;-71
2022/07/22 11:13:51;;;;;;;1.58;1.42;;;;;;;24.92;87.64;102084.22;10267159;28;20428;-73
2022/07/22 11:18:53;;;;;;;4.00;2.38;;;;;;;24.99;89.07;102084.84;10280987;28;20073;-73
2022/07/22 11:23:56;;;;;;;7.18;1.40;;;;;;;26.04;85.10;102082.13;10280797;28;20034;-72
2022/07/22 11:28:57;;;;;;;3.53;1.85;;;;;;;27.17;79.26;102082.25;10296823;28;20038;-73
2022/07/22 11:34:05;;;;;;;2.10;1.60;;;;;;;27.43;71.58;102069.94;10297030;28;20378;-72
2022/07/22 11:39:05;;;;;;;2.15;1.65;;;;;;;27.19;61.90;102060.56;10280531;28;20050;-72
2022/07/22 11:44:06;;;;;;;1.98;1.42;;;;;;;26.17;74.50;102031.63;10280871;28;20081;-72
2022/07/22 11:49:07;;;;;;;8.25;1.90;;;;;;;25.24;80.04;102029.59;10296051;28;20373;-72
2022/07/22 11:54:08;;;;;;;1.98;1.77;;;;;;;24.72;77.46;102023.94;10295791;28;20089;-72
2022/07/22 11:59:12;;;;;;;4.00;2.55;;;;;;;24.70;67.30;102040.03;10279893;28;20173;-71
2022/07/22 12:04:23;;;;;;;3.35;1.73;;;;;;;25.64;68.75;102036.44;10296810;28;20069;-72
2022/07/22 12:09:28;;;;;;;4.40;2.15;;;;;;;25.79;66.58;102051.50;10279241;28;20039;-71
2022/07/22 12:14:30;;;;;;;1.75;1.55;;;;;;;25.41;68.37;102034.97;10296653;28;20378;-72
2022/07/22 12:19:32;;;;;;;5.45;1.65;;;;;;;25.93;74.73;102044.34;10295617;28;20038;-72
2022/07/22 12:24:35;;;;;;;5.55;1.63;;;;;;;26.47;68.93;102029.97;10278010;28;20466;-72
2022/07/22 12:29:36;;;;;;;1.60;1.50;;;;;;;26.76;63.06;102038.63;10296106;28;20041;-70
2022/07/22 12:34:39;;;;;;;6.80;1.65;;;;;;;25.75;64.00;102034.56;10294912;28;20122;-71
2022/07/22 12:39:39;;;;;;;2.10;1.42;;;;;;;25.96;69.72;102029.91;10277506;28;20115;-72
2022/07/22 12:44:40;;;;;;;1.20;1.15;;;;;;;25.66;64.25;102023.13;10292959;28;20145;-73
2022/07/22 12:49:40;;;;;;;1.33;1.33;;;;;;;26.10;67.53;102019.09;10277697;28;20109;-71
2022/07/22 12:54:41;;;;;;;3.00;1.83;;;;;;;26.54;64.10;102019.44;10294358;28;20038;-72
2022/07/22 12:59:41;;;;;;;2.78;1.63;;;;;;;26.82;64.04;102017.22;10294603;28;20031;-71
2022/07/22 13:04:41;;;;;;;6.60;1.50;;;;;;;26.16;65.56;102029.97;10277808;28;20434;-70
2022/07/22 13:09:43;;;;;;;6.53;1.67;;;;;;;26.25;68.31;102015.53;10294042;28;20047;-71
2022/07/22 13:14:43;;;;;;;0.80;0.80;;;;;;;25.73;68.98;102034.81;10294880;28;20039;-71
2022/07/22 13:19:44;;;;;;;1.20;1.20;;;;;;;25.32;65.63;102027.41;10295300;28;20090;-71
2022/07/22 13:24:44;;;;;;;3.00;1.95;;;;;;;25.27;68.87;102031.84;10277991;28;20034;-70
2022/07/22 13:29:45;;;;;;;7.70;1.80;;;;;;;25.73;67.79;102012.63;10276460;28;20055;-71
2022/07/22 13:34:45;;;;;;;3.17;1.92;;;;;;;26.23;67.34;102001.06;10293991;28;20034;-72
2022/07/22 13:39:47;;;;;;;1.73;1.60;;;;;;;26.37;67.67;102010.53;10293237;28;20508;-71
2022/07/22 13:44:48;;;;;;;6.00;1.65;;;;;;;26.05;68.25;102021.88;10294915;28;20387;-71
2022/07/22 13:49:48;;;;;;;1.58;1.45;;;;;;;25.41;62.46;102023.03;10277967;28;20043;-72
2022/07/22 13:54:52;;;;;;;1.15;1.15;;;;;;;24.99;65.55;101998.94;10285309;28;20042;-72
2022/07/22 13:59:52;;;;;;;1.98;1.83;;;;;;;24.53;58.62;102004.13;10285167;28;20477;-71
2022/07/22 14:04:53;;;;;;;2.88;2.55;;;;;;;24.54;66.81;102006.66;10301819;28;20034;-72
2022/07/22 14:09:53;;;;;;;1.63;1.52;;;;;;;24.68;67.12;101990.41;10283420;28;20089;-72
2022/07/22 14:14:54;;;;;;;1.10;1.10;;;;;;;24.74;67.69;101992.13;10300730;28;20050;-72
2022/07/22 14:19:54;;;;;;;0.85;0.77;;;;;;;24.24;67.60;101998.03;10300083;28;20039;-71
2022/07/22 14:24:55;;;;;;;1.33;1.27;;;;;;;24.02;60.56;102003.63;10301369;28;20031;-71
2022/07/22 14:29:55;;;;;;;1.55;1.48;;;;;;;23.60;64.39;102002.31;10300153;28;20046;-72
2022/07/22 14:34:56;;;;;;;2.03;1.48;;;;;;;23.69;63.38;101997.19;10299394;28;20027;-72
2022/07/22 14:39:56;;;;;;;3.25;2.05;;;;;;;23.81;65.96;102005.38;10299332;28;20054;-71
2022/07/22 14:44:56;;;;;;;1.35;1.25;;;;;;;23.86;66.73;102002.63;10298838;28;20123;-71
2022/07/22 14:49:57;;;;;;;1.13;1.02;;;;;;;23.65;63.54;101996.84;10300459;28;20051;-71
2022/07/22 14:54:57;;;;;;;1.75;1.23;;;;;;;23.38;62.87;101993.19;10300420;28;20101;-70
2022/07/22 14:59:58;;;;;;;9.27;1.50;;;;;;;23.25;63.10;101986.13;10284672;28;20046;-72
2022/07/22 15:04:58;;;;;;;1.92;1.80;;;;;;;23.08;63.97;101982.56;10264618;28;20031;-72
2022/07/22 15:09:58;;;;;;;7.18;1.80;;;;;;;22.82;62.77;101978.59;10299422;28;20101;-71
2022/07/22 15:14:59;;;;;;;1.42;1.33;;;;;;;22.63;62.58;101969.75;10298429;28;20553;-72
2022/07/22 15:19:59;;;;;;;2.80;1.58;;;;;;;22.39;61.70;101971.81;10297285;28;20089;-72
2022/07/22 15:25:00;;;;;;;1.50;1.33;;;;;;;22.24;64.10;101964.97;10298863;28;20039;-70
2022/07/22 15:30:00;;;;;;;1.00;1.00;;;;;;;22.05;65.22;101967.09;10297066;28;20121;-71
2022/07/22 15:35:01;;;;;;;4.90;1.67;;;;;;;21.96;65.36;101968.56;10298353;28;20038;-70
2022/07/22 15:40:01;;;;;;;4.85;1.90;;;;;;;21.87;66.39;101970.06;10280062;28;20039;-71
2022/07/22 15:45:03;;;;;;;1.33;1.33;;;;;;;21.79;67.18;101979.56;10297695;28;20142;-71
2022/07/22 15:50:03;;;;;;;1.42;1.20;;;;;;;21.95;67.72;101983.47;10280087;28;20047;-72
2022/07/22 15:55:04;;;;;;;1.15;1.08;;;;;;;21.90;67.75;101982.53;10297082;28;20038;-72
2022/07/22 16:00:05;;;;;;;1.40;1.30;;;;;;;21.65;65.74;101991.13;10296222;28;20390;-71
2022/07/22 16:05:06;;;;;;;1.05;1.00;;;;;;;21.57;66.85;101989.59;10278904;28;20042;-71
2022/07/22 16:10:07;;;;;;;6.43;1.83;;;;;;;21.49;67.70;101993.56;10294409;28;20190;-71
2022/07/22 16:15:07;;;;;;;1.40;1.25;;;;;;;21.37;66.55;101990.00;10295981;28;20058;-70
2022/07/22 16:20:09;;;;;;;0.98;0.98;;;;;;;21.27;67.68;101975.97;10262910;28;20086;-71
2022/07/22 16:25:09;;;;;;;1.63;0.98;;;;;;;21.14;66.46;101969.66;10296265;28;20038;-70
2022/07/22 16:30:10;;;;;;;3.10;1.80;;;;;;;21.09;67.21;101944.78;10277783;28;20057;-71
2022/07/22 16:35:10;;;;;;;2.88;1.30;;;;;;;21.14;67.44;101942.09;10295347;28;20043;-72
2022/07/22 16:40:13;;;;;;;6.50;2.20;;;;;;;21.28;67.62;101939.06;10294976;28;20034;-71
2022/07/22 16:45:13;;;;;;;2.00;1.42;;;;;;;21.11;65.10;101942.59;10295259;28;20154;-71
2022/07/22 16:50:13;;;;;;;1.38;1.23;;;;;;;20.97;67.11;101934.84;10294300;28;20537;-72
2022/07/22 16:55:14;;;;;;;0.95;0.95;;;;;;;20.81;66.58;101933.69;10295189;28;20054;-70
2022/07/22 17:00:15;;;;;;;0.98;0.98;;;;;;;20.53;66.31;101920.63;10294334;28;20125;-71
2022/07/22 17:05:15;;;;;;;2.13;1.65;;;;;;;20.18;66.97;101913.16;10277177;28;20033;-71
2022/07/22 17:10:15;;;;;;;1.20;1.17;;;;;;;19.91;66.93;101896.22;10275960;28;20602;-71
2022/07/22 17:15:16;;;;;;;2.30;2.10;;;;;;;19.68;68.01;101895.09;10294275;28;20063;-71
2022/07/22 17:20:16;;;;;;;2.33;1.77;;;;;;;19.44;68.69;101896.06;10292752;28;20026;-72
2022/07/22 17:25:17;;;;;;;5.88;1.52;;;;;;;19.24;68.59;101905.41;10291847;28;20117;-71
2022/07/22 17:30:17;;;;;;;3.22;1.67;;;;;;;18.77;69.86;101918.00;10294484;28;20110;-71
2022/07/22 17:35:17;;;;;;;3.33;1.88;;;;;;;18.32;71.16;101932.75;10293198;28;20055;-70
2022/07/22 17:40:18;;;;;;;2.15;1.80;;;;;;;17.93;72.96;101928.38;10294904;28;20046;-71
2022/07/22 17:45:18;;;;;;;3.88;2.03;;;;;;;17.59;74.37;101913.22;10275773;28;20081;-70
2022/07/22 17:50:19;;;;;;;3.50;1.60;;;;;;;17.42;76.76;101924.66;10277511;28;20140;-70
2022/07/22 17:55:19;;;;;;;2.22;1.52;;;;;;;17.39;76.71;101910.59;10293577;28;20050;-70
2022/07/22 18:00:19;;;;;;;3.63;2.72;;;;;;;17.47;76.74;101913.06;10294196;28;20046;-69
2022/07/22 18:05:20;;;;;;;1.92;1.80;;;;;;;17.50;77.32;101920.84;10276107;28;20035;-70
2022/07/22 18:10:20;;;;;;;2.78;2.13;;;;;;;17.48;78.27;101906.50;10294419;28;20426;-69
2022/07/22 18:15:21;;;;;;;4.47;2.10;;;;;;;17.41;80.61;101901.06;10292591;28;20039;-70
2022/07/22 18:20:21;;;;;;;1.70;1.58;;;;;;;17.38;82.38;101897.94;10293047;28;20090;-70
2022/07/22 18:25:22;;;;;;;4.25;2.00;;;;;;;17.43;82.99;101896.22;10276989;28;20459;-70
2022/07/22 18:30:22;;;;;;;4.93;2.30;;;;;;;17.44;83.52;101889.69;10291712;28;20385;-70
2022/07/22 18:35:22;;;;;;;4.47;1.70;;;;;;;17.35;85.22;101893.72;10293519;28;20079;-71
2022/07/22 18:40:24;;;;;;;3.55;1.83;;;;;;;17.36;85.18;101892.69;10298426;28;20525;-71
2022/07/22 18:45:24;;;;;;;1.23;1.15;;;;;;;17.41;85.31;101889.28;10300580;28;20130;-65
2022/07/22 18:50:25;;;;;;;1.73;1.63;;;;;;;17.31;88.01;101900.69;10300748;28;20086;-65
2022/07/22 18:55:26;;;;;;;3.53;2.15;;;;;;;17.24;87.30;101902.63;10299480;28;20042;-65
2022/07/22 19:00:26;;;;;;;7.50;2.00;;;;;;;17.15;87.12;101906.66;10300545;28;20101;-65
2022/07/22 19:05:26;;;;;;;2.88;2.00;;;;;;;17.12;86.46;101915.31;10298387;28;20113;-65
2022/07/22 19:10:27;;;;;;;1.98;1.77;;;;;;;17.06;86.30;101921.66;10298294;28;20035;-66
2022/07/22 19:15:27;;;;;;;7.50;2.13;;;;;;;17.03;87.57;101922.09;10298100;28;20039;-66
2022/07/22 19:20:28;;;;;;;6.57;1.80;;;;;;;16.86;88.30;101918.97;10299337;28;20542;-66
2022/07/22 19:25:28;;;;;;;1.33;1.30;;;;;;;16.80;87.92;101912.47;10299147;28;20081;-66
2022/07/22 19:30:28;;;;;;;3.10;1.67;;;;;;;16.70;87.81;101925.72;10296899;28;20066;-65
2022/07/22 19:35:29;;;;;;;9.60;2.60;;;;;;;16.61;87.47;101932.47;10298044;28;20058;-66
2022/07/22 19:40:30;;;;;;;1.95;1.73;;;;;;;16.56;88.23;101943.19;10280451;28;20027;-66
2022/07/22 19:45:30;;;;;;;2.60;1.40;;;;;;;16.44;88.06;101946.56;10297340;28;20120;-65
2022/07/22 19:50:31;;;;;;;2.55;1.75;;;;;;;16.30;87.69;101953.06;10298016;28;20114;-67
2022/07/22 19:55:31;;;;;;;2.13;1.70;;;;;;;16.17;87.82;101962.09;10301431;28;20086;-66
2022/07/22 20:00:31;;;;;;;2.38;2.17;;;;;;;16.09;87.76;101961.47;10303678;28;20443;-65
2022/07/22 20:05:32;;;;;;;5.18;2.08;;;;;;;15.98;87.94;101957.44;10286193;28;20038;-67
2022/07/22 20:10:32;;;;;;;3.67;2.35;;;;;;;15.90;88.00;101950.31;10303265;28;20070;-66
2022/07/22 20:15:33;;;;;;;5.85;2.42;;;;;;;15.81;88.69;101946.09;10304911;28;20394;-66
2022/07/22 20:20:33;;;;;;;9.48;2.30;;;;;;;15.76;88.73;101948.56;10305375;28;20046;-66
2022/07/22 20:25:33;;;;;;;7.35;2.03;;;;;;;15.66;88.77;101950.84;10286210;28;20035;-66
2022/07/22 20:30:34;;;;;;;11.48;2.20;;;;;;;15.57;89.12;101951.03;10304155;28;20086;-65
2022/07/22 20:35:34;;;;;;;5.20;2.40;;;;;;;15.57;88.80;101950.16;10287208;28;20026;-73
2022/07/22 20:40:35;;;;;;;2.40;1.95;;;;;;;15.48;89.02;101957.72;10305940;28;20039;-73
2022/07/22 20:45:36;;;;;;;10.10;1.60;;;;;;;15.45;89.40;101951.84;10307415;28;20047;-73
2022/07/22 20:50:36;;;;;;;3.65;2.88;;;;;;;15.41;89.81;101965.06;10293115;28;20046;-73
2022/07/22 20:55:37;;;;;;;2.28;1.67;;;;;;;15.39;89.62;101964.41;10308067;28;20042;-72
2022/07/22 21:00:37;;;;;;;3.08;2.05;;;;;;;15.40;89.28;101959.78;10292449;28;20058;-72
2022/07/22 21:05:38;;;;;;;1.85;1.73;;;;;;;15.42;89.69;101964.00;10312158;28;20034;-73
2022/07/22 21:10:38;;;;;;;3.08;2.15;;;;;;;15.41;90.28;101956.88;10311180;28;20073;-73
2022/07/22 21:15:39;;;;;;;13.10;2.78;;;;;;;15.47;90.46;101961.47;10298340;28;20031;-74
2022/07/22 21:20:39;;;;;;;3.40;2.60;;;;;;;15.48;90.83;101968.66;10280015;28;20109;-72
2022/07/22 21:25:39;;;;;;;9.38;3.70;;;;;;;15.49;90.95;101962.13;10296494;28;20090;-73
2022/07/22 21:30:41;;;;;;;11.75;4.63;;;;;;;15.48;91.14;101957.72;10280839;28;20035;-73
2022/07/22 21:35:42;;;;;;;4.60;1.90;;;;;;;15.41;90.53;101951.41;10295482;28;20039;-73
2022/07/22 21:40:42;;;;;;;5.97;1.65;;;;;;;15.35;90.66;101949.47;10298340;28;20043;-72
2022/07/22 21:45:48;;;;;;;4.63;2.15;;;;;;;15.30;91.00;101949.25;10301431;28;20055;-73
2022/07/22 21:50:49;;;;;;;3.63;2.33;;;;;;;15.28;91.83;101938.53;10298408;28;20074;-72
2022/07/22 22:01:08;;;;;;;8.52;3.75;;;;;;;15.35;92.12;101938.56;10297814;28;20047;-71
2022/07/22 22:06:09;;;;;;;4.38;2.20;;;;;;;15.41;92.23;101940.50;10295641;28;20038;-71
2022/07/22 22:11:09;;;;;;;4.88;2.28;;;;;;;15.48;92.75;101932.31;10295013;28;20038;-72
2022/07/22 22:16:09;;;;;;;2.17;2.03;;;;;;;15.56;92.29;101938.41;10299982;28;20078;-71
2022/07/22 22:21:10;;;;;;;6.60;3.03;;;;;;;15.57;92.35;101940.13;10301679;28;20034;-71
2022/07/22 22:26:10;;;;;;;2.55;1.90;;;;;;;15.63;92.68;101938.44;10301123;28;20031;-71
2022/07/22 22:31:10;;;;;;;5.60;2.70;;;;;;;15.65;92.45;101933.63;10300877;28;20494;-72
2022/07/22 22:36:11;;;;;;;4.38;2.08;;;;;;;15.64;93.09;101928.38;10283040;28;20035;-71
2022/07/22 22:41:12;;;;;;;2.42;2.22;;;;;;;15.59;94.12;101924.34;10266807;28;20050;-71
2022/07/22 22:46:12;;;;;;;2.05;1.77;;;;;;;15.54;93.75;101929.59;10299406;28;20051;-71
2022/07/22 22:51:12;;;;;;;3.80;2.65;;;;;;;15.53;93.68;101933.38;10300304;28;20105;-71
2022/07/22 22:56:13;;;;;;;3.13;1.98;;;;;;;15.50;93.81;101939.22;10300029;28;20122;-71
2022/07/22 23:01:13;;;;;;;8.00;3.53;;;;;;;15.41;93.36;101945.94;10298153;28;20533;-71
2022/07/22 23:06:14;;;;;;;3.17;2.33;;;;;;;15.27;92.72;101942.28;10298490;28;20046;-71
2022/07/22 23:11:14;;;;;;;3.03;2.67;;;;;;;15.16;93.04;101936.59;10298354;28;20035;-70